createdAt,value
2018-03-16T00:00:38.238Z,75.54
2018-03-16T00:03:05.676Z,75.83
2018-03-16T00:05:33.130Z,75.62
2018-03-16T00:08:00.571Z,75.62
2018-03-16T00:10:28.026Z,75.67
2018-03-16T00:12:55.463Z,75.67
2018-03-16T00:15:22.909Z,76.78
2018-03-16T00:17:50.392Z,76.46
2018-03-16T00:20:17.856Z,76.88
2018-03-16T00:22:45.303Z,77.10
2018-03-16T00:25:12.757Z,76.91
2018-03-16T00:27:40.210Z,77.10
2018-03-16T00:30:07.652Z,76.92
2018-03-16T00:32:35.104Z,77.17
2018-03-16T00:35:02.552Z,77.28
2018-03-16T00:37:30.041Z,77.15
2018-03-16T00:39:57.479Z,77.56
2018-03-16T00:42:24.933Z,77.26
2018-03-16T00:44:52.396Z,77.11
2018-03-16T00:47:19.848Z,77.34
2018-03-16T00:49:47.283Z,77.86
2018-03-16T00:52:14.756Z,77.75
2018-03-16T00:54:42.222Z,77.52
2018-03-16T00:57:09.683Z,78.11
2018-03-16T00:59:37.128Z,77.74
2018-03-16T01:02:04.589Z,77.65
2018-03-16T01:04:32.032Z,77.70
2018-03-16T01:06:59.485Z,78.01
2018-03-16T01:09:26.932Z,78.40
2018-03-16T01:11:54.389Z,79.36
2018-03-16T01:14:21.827Z,79.44
2018-03-16T01:16:49.275Z,79.57
2018-03-16T01:19:16.716Z,80.15
2018-03-16T01:21:44.173Z,80.46
2018-03-16T01:24:11.607Z,80.10
2018-03-16T01:26:39.121Z,79.96
2018-03-16T01:29:06.571Z,80.40
2018-03-16T01:31:34.016Z,80.83
2018-03-16T01:34:01.463Z,80.92
2018-03-16T01:36:28.920Z,80.82
2018-03-16T01:38:56.370Z,80.61
2018-03-16T01:41:23.806Z,80.60
2018-03-16T01:43:52.062Z,80.56
2018-03-16T01:46:19.535Z,80.36
2018-03-16T01:48:46.992Z,80.45
2018-03-16T01:51:14.424Z,80.58
2018-03-16T01:53:41.872Z,80.73
2018-03-16T01:56:09.325Z,81.33
2018-03-16T01:58:36.781Z,81.84
2018-03-16T02:01:04.897Z,81.99
2018-03-16T02:03:32.349Z,83.00
2018-03-16T02:05:59.799Z,82.96
2018-03-16T02:08:27.247Z,82.75
2018-03-16T02:10:55.010Z,82.74
2018-03-16T02:13:22.465Z,82.76
2018-03-16T02:15:49.914Z,82.43
2018-03-16T02:18:17.369Z,82.09
2018-03-16T02:20:44.808Z,81.79
2018-03-16T02:23:12.264Z,81.94
2018-03-16T02:25:39.701Z,81.83
2018-03-16T02:28:07.161Z,81.73
2018-03-16T02:30:34.601Z,81.49
2018-03-16T02:33:02.123Z,81.33
2018-03-16T02:35:29.519Z,80.96
2018-03-16T02:37:56.977Z,81.00
2018-03-16T02:40:24.413Z,80.84
2018-03-16T02:42:51.859Z,81.13
2018-03-16T02:45:19.304Z,81.97
2018-03-16T02:47:46.746Z,82.60
2018-03-16T02:50:14.211Z,83.63
2018-03-16T02:52:41.657Z,84.04
2018-03-16T02:55:09.130Z,84.26
2018-03-16T02:57:36.576Z,84.31
2018-03-16T03:00:04.019Z,84.16
2018-03-16T03:02:31.449Z,84.33
2018-03-16T03:04:58.903Z,84.34
2018-03-16T03:07:26.344Z,84.71
2018-03-16T03:09:53.793Z,84.66
2018-03-16T03:12:21.232Z,84.70
2018-03-16T03:14:48.740Z,84.88
2018-03-16T03:17:16.430Z,85.13
2018-03-16T03:19:43.872Z,85.36
2018-03-16T03:22:11.308Z,85.39
2018-03-16T03:24:39.234Z,85.46
2018-03-16T03:27:06.677Z,85.29
2018-03-16T03:29:34.124Z,84.92
2018-03-16T03:32:01.600Z,84.54
2018-03-16T03:34:29.034Z,84.72
2018-03-16T03:36:56.482Z,84.30
2018-03-16T03:39:24.017Z,84.54
2018-03-16T03:41:51.453Z,84.37
2018-03-16T03:44:18.921Z,84.21
2018-03-16T03:46:46.366Z,83.74
2018-03-16T03:49:13.805Z,83.72
2018-03-16T03:51:41.274Z,83.18
2018-03-16T03:54:08.741Z,82.53
2018-03-16T03:56:36.191Z,82.56
2018-03-16T03:59:03.629Z,82.62
2018-03-16T04:01:31.086Z,82.44
2018-03-16T04:03:58.567Z,82.38
2018-03-16T04:06:26.008Z,82.34
2018-03-16T04:08:53.439Z,82.35
2018-03-16T04:11:20.884Z,82.69
2018-03-16T04:13:48.314Z,82.67
2018-03-16T04:16:15.767Z,82.68
2018-03-16T04:18:43.204Z,82.63
2018-03-16T04:21:10.647Z,83.20
2018-03-16T04:23:38.072Z,83.51
2018-03-16T04:26:05.517Z,83.60
2018-03-16T04:28:32.952Z,83.77
2018-03-16T04:31:00.396Z,83.71
2018-03-16T04:33:27.999Z,83.62
2018-03-16T04:35:55.503Z,83.64
2018-03-16T04:38:22.973Z,83.59
2018-03-16T04:40:50.428Z,83.91
2018-03-16T04:43:17.865Z,83.57
2018-03-16T04:45:45.303Z,83.33
2018-03-16T04:48:12.747Z,83.12
2018-03-16T04:50:40.221Z,83.07
2018-03-16T04:53:07.662Z,83.46
2018-03-16T04:55:35.096Z,83.41
2018-03-16T04:58:02.548Z,83.20
2018-03-16T05:00:29.993Z,82.99
2018-03-16T05:02:57.451Z,83.17
2018-03-16T05:05:24.892Z,83.06
2018-03-16T05:07:52.336Z,82.91
2018-03-16T05:10:19.781Z,83.20
2018-03-16T05:12:47.228Z,83.64
2018-03-16T05:15:14.651Z,83.70
2018-03-16T05:17:42.092Z,84.08
2018-03-16T05:20:09.530Z,84.18
2018-03-16T05:22:36.977Z,84.28
2018-03-16T05:25:04.413Z,83.91
2018-03-16T05:27:33.010Z,83.56
2018-03-16T05:30:00.444Z,83.82
2018-03-16T05:32:27.890Z,82.89
2018-03-16T05:34:55.332Z,82.54
2018-03-16T05:37:22.794Z,82.56
2018-03-16T05:39:50.243Z,82.70
2018-03-16T05:42:17.679Z,82.34
2018-03-16T05:44:45.122Z,82.14
2018-03-16T05:47:12.567Z,82.50
2018-03-16T05:49:40.005Z,81.96
2018-03-16T05:52:07.437Z,81.48
2018-03-16T05:54:34.875Z,81.53
2018-03-16T05:57:02.321Z,81.37
2018-03-16T05:59:29.748Z,81.23
2018-03-16T06:01:57.176Z,81.18
2018-03-16T06:04:24.636Z,81.23
2018-03-16T06:06:52.074Z,81.43
2018-03-16T06:09:19.530Z,80.93
2018-03-16T06:11:47.046Z,80.66
2018-03-16T06:14:14.492Z,80.40
2018-03-16T06:16:41.932Z,80.35
2018-03-16T06:19:09.396Z,80.27
2018-03-16T06:21:36.837Z,79.80
2018-03-16T06:24:04.275Z,80.55
2018-03-16T06:26:31.719Z,80.24
2018-03-16T06:28:59.173Z,80.05
2018-03-16T06:31:26.609Z,79.80
2018-03-16T06:33:54.072Z,79.74
2018-03-16T06:36:21.511Z,79.41
2018-03-16T06:38:48.954Z,79.47
2018-03-16T06:41:16.796Z,79.09
2018-03-16T06:43:44.240Z,79.04
2018-03-16T06:46:11.674Z,78.74
2018-03-16T06:48:39.122Z,78.34
2018-03-16T06:51:06.554Z,77.57
2018-03-16T06:53:34.018Z,78.06
2018-03-16T06:56:01.457Z,77.16
2018-03-16T06:58:28.947Z,77.65
2018-03-16T07:00:56.357Z,76.86
2018-03-16T07:03:23.817Z,75.85
2018-03-16T07:05:51.261Z,74.16
2018-03-16T07:08:18.701Z,72.08
2018-03-16T07:10:46.139Z,71.56
2018-03-16T07:13:13.613Z,70.95
2018-03-16T07:15:41.071Z,71.40
2018-03-16T07:18:08.524Z,72.59
2018-03-16T07:20:35.976Z,72.12
2018-03-16T07:23:03.425Z,72.28
2018-03-16T07:25:30.880Z,72.64
2018-03-16T07:27:58.312Z,73.33
2018-03-16T07:30:25.752Z,71.86
2018-03-16T07:32:53.205Z,73.36
2018-03-16T07:35:20.642Z,72.64
2018-03-16T07:37:48.077Z,72.15
2018-03-16T07:40:15.523Z,72.24
2018-03-16T07:42:42.964Z,72.20
2018-03-16T07:45:10.405Z,72.28
2018-03-16T07:47:37.855Z,71.45
2018-03-16T07:50:05.312Z,70.75
2018-03-16T07:52:32.760Z,70.54
2018-03-16T07:55:00.213Z,71.30
2018-03-16T07:57:27.660Z,71.65
2018-03-16T07:59:55.129Z,71.00
2018-03-16T08:02:22.572Z,71.40
2018-03-16T08:04:50.029Z,71.70
2018-03-16T08:07:17.484Z,71.84
2018-03-16T08:09:44.931Z,71.93
2018-03-16T08:12:12.376Z,71.96
2018-03-16T08:14:39.817Z,73.04
2018-03-16T08:17:07.264Z,72.64
2018-03-16T08:19:34.696Z,72.60
2018-03-16T08:22:02.173Z,73.73
2018-03-16T08:24:29.649Z,73.97
2018-03-16T08:26:57.122Z,73.64
2018-03-16T08:29:24.581Z,73.78
2018-03-16T08:31:52.041Z,74.22
2018-03-16T08:34:19.503Z,74.03
2018-03-16T08:36:46.985Z,74.97
2018-03-16T08:39:14.431Z,75.55
2018-03-16T08:41:41.877Z,75.07
2018-03-16T08:44:09.311Z,75.27
2018-03-16T08:46:36.773Z,73.80
2018-03-16T08:49:04.229Z,74.07
2018-03-16T08:51:31.680Z,74.82
2018-03-16T08:53:59.235Z,73.65
2018-03-16T08:56:26.683Z,72.04
2018-03-16T08:58:54.128Z,73.78
2018-03-16T09:01:21.581Z,71.78
2018-03-16T09:03:49.040Z,72.53
2018-03-16T09:06:16.509Z,72.51
2018-03-16T09:08:43.968Z,72.52
2018-03-16T09:11:11.424Z,72.86
2018-03-16T09:13:38.877Z,72.31
2018-03-16T09:16:06.332Z,72.45
2018-03-16T09:18:33.826Z,71.55
2018-03-16T09:21:01.240Z,70.69
2018-03-16T09:23:28.677Z,69.71
2018-03-16T09:25:56.185Z,68.25
2018-03-16T09:28:23.648Z,69.12
2018-03-16T09:30:51.093Z,68.16
2018-03-16T09:33:18.561Z,66.93
2018-03-16T09:35:46.005Z,66.32
2018-03-16T09:38:13.462Z,66.72
2018-03-16T09:40:40.959Z,66.32
2018-03-16T09:43:08.502Z,66.03
2018-03-16T09:45:35.866Z,66.29
2018-03-16T09:48:03.312Z,66.88
2018-03-16T09:50:30.748Z,65.97
2018-03-16T09:52:58.218Z,65.87
2018-03-16T09:55:47.207Z,63.97
2018-03-16T09:58:14.656Z,64.79
2018-03-16T10:00:42.103Z,63.65
2018-03-16T10:03:09.586Z,62.61
2018-03-16T10:05:37.021Z,63.17
2018-03-16T10:08:04.484Z,63.50
2018-03-16T10:10:31.937Z,63.09
2018-03-16T10:12:59.389Z,63.95
2018-03-16T10:15:26.849Z,64.00
2018-03-16T10:17:54.309Z,63.07
2018-03-16T10:20:21.750Z,63.86
2018-03-16T10:22:49.196Z,63.64
2018-03-16T10:25:16.644Z,63.42
2018-03-16T10:27:44.920Z,63.41
2018-03-16T10:30:12.361Z,62.61
2018-03-16T10:32:39.812Z,63.97
2018-03-16T10:35:07.264Z,63.13
2018-03-16T10:37:34.725Z,62.40
2018-03-16T10:40:02.173Z,62.56
2018-03-16T10:42:29.643Z,60.13
2018-03-16T10:44:57.084Z,60.95
2018-03-16T10:47:24.734Z,59.92
2018-03-16T10:49:52.184Z,59.71
2018-03-16T10:52:19.681Z,58.02
2018-03-16T10:54:47.131Z,59.60
2018-03-16T10:57:14.560Z,58.31
2018-03-16T10:59:42.019Z,58.06
2018-03-16T11:02:15.036Z,58.50
2018-03-16T11:04:42.490Z,60.19
2018-03-16T11:07:25.424Z,56.50
2018-03-16T11:09:52.876Z,58.14
2018-03-16T11:12:20.326Z,55.64
2018-03-16T11:14:47.780Z,57.59
2018-03-16T11:17:15.246Z,56.59
2018-03-16T11:19:42.686Z,57.46
2018-03-16T11:22:10.115Z,55.92
2018-03-16T11:24:37.573Z,56.54
2018-03-16T11:27:05.030Z,57.72
2018-03-16T11:29:32.490Z,59.06
2018-03-16T11:31:59.956Z,59.07
2018-03-16T11:34:27.404Z,58.95
2018-03-16T11:36:54.842Z,58.64
2018-03-16T11:39:22.281Z,58.11
2018-03-16T11:41:49.724Z,58.83
2018-03-16T11:44:17.192Z,58.90
2018-03-16T11:46:44.624Z,58.18
2018-03-16T11:49:12.128Z,57.30
2018-03-16T11:51:39.528Z,57.32
2018-03-16T11:54:07.088Z,57.19
2018-03-16T11:56:34.543Z,57.69
2018-03-16T11:59:02.004Z,57.98
2018-03-16T12:01:29.441Z,58.66
2018-03-16T12:03:56.895Z,59.19
2018-03-16T12:06:24.335Z,57.36
2018-03-16T12:08:51.787Z,56.69
2018-03-16T12:11:19.472Z,57.47
2018-03-16T12:13:46.919Z,56.61
2018-03-16T12:16:14.375Z,56.87
2018-03-16T12:18:41.819Z,56.20
2018-03-16T12:21:09.282Z,56.74
2018-03-16T12:23:36.726Z,56.42
2018-03-16T12:26:04.173Z,57.11
2018-03-16T12:28:49.374Z,57.76
2018-03-16T12:30:59.145Z,57.63
2018-03-16T12:33:26.590Z,58.26
2018-03-16T12:35:54.045Z,57.71
2018-03-16T12:38:21.486Z,57.91
2018-03-16T12:40:48.943Z,58.60
2018-03-16T12:43:16.386Z,57.75
2018-03-16T12:45:43.860Z,57.34
2018-03-16T12:48:11.315Z,58.12
2018-03-16T12:50:38.770Z,57.17
2018-03-16T12:53:06.212Z,56.53
2018-03-16T12:55:33.690Z,56.03
2018-03-16T12:58:01.148Z,56.04
2018-03-16T13:00:28.601Z,56.75
2018-03-16T13:02:56.034Z,55.98
2018-03-16T13:05:23.488Z,57.01
2018-03-16T13:07:50.930Z,57.10
2018-03-16T13:10:18.392Z,55.85
2018-03-16T13:12:45.836Z,56.25
2018-03-16T13:15:13.299Z,55.52
2018-03-16T13:17:40.744Z,55.40
2018-03-16T13:20:08.195Z,54.29
2018-03-16T13:22:35.681Z,55.47
2018-03-16T13:25:03.136Z,53.37
2018-03-16T13:27:30.607Z,53.81
2018-03-16T13:29:58.048Z,54.10
2018-03-16T13:32:25.523Z,53.33
2018-03-16T13:34:52.959Z,53.50
2018-03-16T13:37:20.408Z,50.52
2018-03-16T13:39:47.843Z,49.29
2018-03-16T13:42:15.283Z,49.83
2018-03-16T13:44:42.747Z,48.15
2018-03-16T13:47:10.200Z,48.52
2018-03-16T13:49:37.649Z,46.83
2018-03-16T13:52:05.094Z,47.55
2018-03-16T13:54:32.532Z,47.16
2018-03-16T13:56:59.996Z,47.42
2018-03-16T13:59:27.444Z,47.37
2018-03-16T14:01:54.886Z,48.42
2018-03-16T14:04:22.322Z,48.40
2018-03-16T14:06:49.763Z,46.59
2018-03-16T14:09:17.223Z,45.70
2018-03-16T14:11:44.667Z,44.65
2018-03-16T14:14:12.102Z,45.33
2018-03-16T14:16:39.544Z,44.93
2018-03-16T14:19:07.136Z,45.85
2018-03-16T14:21:34.588Z,45.99
2018-03-16T14:24:02.024Z,47.24
2018-03-16T14:26:29.487Z,46.51
2018-03-16T14:28:56.923Z,45.97
2018-03-16T14:31:24.355Z,46.67
2018-03-16T14:33:51.794Z,46.84
2018-03-16T14:36:19.220Z,46.15
2018-03-16T14:38:46.660Z,45.83
2018-03-16T14:41:14.097Z,47.22
2018-03-16T14:43:41.664Z,46.71
2018-03-16T14:46:09.130Z,47.16
2018-03-16T14:48:36.572Z,45.39
2018-03-16T14:51:04.011Z,46.79
2018-03-16T14:53:31.461Z,45.79
2018-03-16T14:55:58.915Z,46.44
2018-03-16T14:58:26.361Z,46.06
2018-03-16T15:00:53.797Z,47.19
2018-03-16T15:03:21.237Z,46.57
2018-03-16T15:05:48.675Z,46.17
2018-03-16T15:08:16.161Z,46.11
2018-03-16T15:10:43.573Z,46.88
2018-03-16T15:13:11.019Z,47.40
2018-03-16T15:15:38.456Z,46.87
2018-03-16T15:18:05.900Z,44.55
2018-03-16T15:20:33.353Z,44.17
2018-03-16T15:23:00.808Z,44.58
2018-03-16T15:25:28.214Z,44.64
2018-03-16T15:27:55.690Z,44.66
2018-03-16T15:30:23.090Z,45.11
2018-03-16T15:32:50.506Z,43.97
2018-03-16T15:35:17.939Z,44.53
2018-03-16T15:37:45.331Z,44.99
2018-03-16T15:40:12.744Z,44.62
2018-03-16T15:42:40.147Z,43.77
2018-03-16T15:45:07.559Z,45.99
2018-03-16T15:47:34.962Z,47.33
2018-03-16T15:50:02.467Z,47.58
2018-03-16T15:52:29.791Z,49.35
2018-03-16T15:54:57.247Z,49.78
2018-03-16T15:57:24.650Z,49.35
2018-03-16T15:59:52.050Z,49.33
2018-03-16T16:02:19.455Z,49.60
2018-03-16T16:04:46.862Z,50.84
2018-03-16T16:07:14.262Z,49.63
2018-03-16T16:09:41.725Z,49.45
2018-03-16T16:12:09.144Z,49.74
2018-03-16T16:14:36.537Z,48.77
2018-03-16T16:17:03.966Z,47.98
2018-03-16T16:19:31.423Z,48.21
2018-03-16T16:21:58.813Z,48.80
2018-03-16T16:24:26.238Z,48.54
2018-03-16T16:26:53.655Z,48.74
2018-03-16T16:29:21.076Z,48.01
2018-03-16T16:31:48.490Z,47.99
2018-03-16T16:34:15.935Z,47.63
2018-03-16T16:36:43.347Z,46.68
2018-03-16T16:39:10.765Z,46.69
2018-03-16T16:41:38.280Z,47.15
2018-03-16T16:44:05.698Z,47.56
2018-03-16T16:46:33.132Z,49.87
2018-03-16T16:49:00.568Z,52.77
2018-03-16T16:51:27.993Z,52.58
2018-03-16T16:53:55.406Z,53.68
2018-03-16T16:56:22.819Z,53.86
2018-03-16T16:58:50.227Z,55.02
2018-03-16T17:01:17.665Z,54.80
2018-03-16T17:03:45.081Z,55.74
2018-03-16T17:06:12.539Z,56.34
2018-03-16T17:08:40.015Z,56.56
2018-03-16T17:11:07.386Z,56.41
2018-03-16T17:13:35.714Z,57.61
2018-03-16T17:16:03.132Z,56.00
2018-03-16T17:18:30.547Z,56.08
2018-03-16T17:20:57.974Z,56.83
2018-03-16T17:23:25.378Z,56.33
2018-03-16T17:25:52.802Z,56.63
2018-03-16T17:28:20.215Z,56.53
2018-03-16T17:30:47.719Z,57.30
2018-03-16T17:33:15.140Z,57.60
2018-03-16T17:35:42.552Z,58.75
2018-03-16T17:38:09.975Z,58.06
2018-03-16T17:40:37.370Z,58.06
2018-03-16T17:43:04.795Z,58.57
2018-03-16T17:45:32.203Z,58.55
2018-03-16T17:47:59.642Z,59.30
2018-03-16T17:50:27.050Z,59.55
2018-03-16T17:52:54.477Z,60.14
2018-03-16T17:55:21.946Z,60.75
2018-03-16T17:57:49.356Z,60.68
2018-03-16T18:00:16.750Z,61.01
2018-03-16T18:02:44.172Z,61.82
2018-03-16T18:05:11.579Z,60.80
2018-03-16T18:07:39.003Z,61.11
2018-03-16T18:10:06.516Z,61.25
2018-03-16T18:12:33.934Z,60.74
2018-03-16T18:15:01.356Z,60.60
2018-03-16T18:17:28.766Z,60.96
2018-03-16T18:19:56.184Z,59.43
2018-03-16T18:22:23.602Z,58.99
2018-03-16T18:24:51.030Z,60.27
2018-03-16T18:27:18.453Z,59.65
2018-03-16T18:29:45.855Z,58.00
2018-03-16T18:32:13.272Z,58.24
2018-03-16T18:34:40.670Z,57.39
2018-03-16T18:37:08.181Z,58.20
2018-03-16T18:39:35.547Z,58.96
2018-03-16T18:42:03.074Z,58.03
2018-03-16T18:44:30.599Z,59.10
2018-03-16T18:46:58.007Z,57.95
2018-03-16T18:49:25.426Z,59.43
2018-03-16T18:51:52.941Z,60.01
2018-03-16T18:54:20.358Z,60.38
2018-03-16T18:56:47.767Z,59.98
2018-03-16T18:59:15.190Z,60.37
2018-03-16T19:01:42.674Z,61.67
2018-03-16T19:04:10.103Z,60.83
2018-03-16T19:06:37.504Z,61.59
2018-03-16T19:09:04.978Z,60.90
2018-03-16T19:11:32.532Z,60.37
2018-03-16T19:13:59.949Z,60.19
2018-03-16T19:16:27.362Z,59.81
2018-03-16T19:18:54.955Z,59.65
2018-03-16T19:21:22.364Z,59.61
2018-03-16T19:23:49.783Z,59.75
2018-03-16T19:26:17.219Z,59.99
2018-03-16T19:28:44.663Z,61.03
2018-03-16T19:31:12.053Z,61.68
2018-03-16T19:33:39.464Z,61.72
2018-03-16T19:36:06.871Z,62.14
2018-03-16T19:38:34.442Z,61.75
2018-03-16T19:41:01.853Z,62.12
2018-03-16T19:43:30.175Z,62.85
2018-03-16T19:45:57.581Z,63.22
2018-03-16T19:48:24.996Z,64.12
2018-03-16T19:50:52.402Z,64.83
2018-03-16T19:53:19.823Z,64.37
2018-03-16T19:55:47.234Z,65.47
2018-03-16T19:58:14.655Z,65.91
2018-03-16T20:00:42.055Z,64.97
2018-03-16T20:03:09.641Z,65.34
2018-03-16T20:05:37.061Z,65.61
2018-03-16T20:08:04.471Z,64.84
2018-03-16T20:10:31.887Z,65.16
2018-03-16T20:12:59.291Z,64.61
2018-03-16T20:15:26.715Z,64.35
2018-03-16T20:17:54.111Z,64.53
2018-03-16T20:20:21.518Z,65.19
2018-03-16T20:22:49.020Z,66.01
2018-03-16T20:25:16.383Z,66.52
2018-03-16T20:27:43.781Z,65.33
2018-03-16T20:30:11.273Z,67.48
2018-03-16T20:32:38.674Z,65.57
2018-03-16T20:35:06.074Z,65.83
2018-03-16T20:37:33.489Z,66.14
2018-03-16T20:40:00.960Z,66.22
2018-03-16T20:42:28.363Z,67.17
2018-03-16T20:44:55.792Z,67.73
2018-03-16T20:47:23.187Z,69.02
2018-03-16T20:49:50.596Z,70.62
2018-03-16T20:52:18.014Z,72.60
2018-03-16T20:54:45.414Z,73.91
2018-03-16T20:57:13.421Z,73.95
2018-03-16T20:59:40.820Z,73.85
2018-03-16T21:02:08.287Z,74.37
2018-03-16T21:04:35.693Z,75.57
2018-03-16T21:07:03.107Z,76.90
2018-03-16T21:09:30.511Z,77.28
2018-03-16T21:11:57.926Z,78.14
2018-03-16T21:14:25.336Z,79.01
2018-03-16T21:16:52.746Z,78.29
2018-03-16T21:19:20.153Z,77.41
2018-03-16T21:21:47.566Z,76.48
2018-03-16T21:24:14.983Z,76.66
2018-03-16T21:26:42.381Z,78.04
2018-03-16T21:29:09.788Z,77.73
2018-03-16T21:31:37.194Z,79.14
2018-03-16T21:34:04.611Z,79.49
2018-03-16T21:36:32.016Z,80.50
2018-03-16T21:38:59.420Z,81.59
2018-03-16T21:41:26.834Z,81.88
2018-03-16T21:43:54.236Z,81.88
2018-03-16T21:46:21.642Z,81.63
2018-03-16T21:48:49.058Z,81.39
2018-03-16T21:51:16.459Z,81.34
2018-03-16T21:53:43.875Z,80.90
2018-03-16T21:56:11.341Z,79.84
2018-03-16T21:58:38.812Z,78.79
2018-03-16T22:02:39.167Z,79.28
2018-03-16T22:05:06.578Z,79.13
2018-03-16T22:07:34.019Z,79.81
2018-03-16T22:10:01.421Z,80.70
2018-03-16T22:12:28.854Z,81.52
2018-03-16T22:14:56.311Z,81.96
2018-03-16T22:17:23.870Z,82.35
2018-03-16T22:19:51.354Z,82.73
2018-03-16T22:22:18.776Z,82.59
2018-03-16T22:24:46.235Z,82.45
2018-03-16T22:27:13.831Z,81.86
2018-03-16T22:29:41.281Z,81.95
2018-03-16T22:32:08.707Z,81.95
2018-03-16T22:34:36.159Z,81.40
2018-03-16T22:37:03.561Z,81.08
2018-03-16T22:39:30.995Z,82.15
2018-03-16T22:41:58.402Z,83.91
2018-03-16T22:44:25.832Z,84.15
2018-03-16T22:46:53.235Z,84.51
2018-03-16T22:49:20.658Z,84.54
2018-03-16T22:51:48.071Z,84.18
2018-03-16T22:54:15.487Z,84.54
2018-03-16T22:56:42.937Z,84.10
2018-03-16T22:59:10.308Z,84.05
2018-03-16T23:01:37.721Z,84.94
2018-03-16T23:04:05.132Z,84.35
2018-03-16T23:06:32.536Z,83.78
2018-03-16T23:08:59.973Z,83.61
2018-03-16T23:11:27.366Z,83.75
2018-03-16T23:13:54.786Z,83.71
2018-03-16T23:16:22.185Z,84.03
2018-03-16T23:18:49.606Z,83.75
2018-03-16T23:21:17.010Z,83.50
2018-03-16T23:23:44.435Z,84.09
2018-03-16T23:26:11.835Z,84.87
2018-03-16T23:28:39.263Z,84.71
2018-03-16T23:31:06.670Z,84.52
2018-03-16T23:33:34.073Z,84.10
2018-03-16T23:36:01.486Z,83.72
2018-03-16T23:38:28.889Z,83.56
2018-03-16T23:40:56.308Z,83.18
2018-03-16T23:43:23.712Z,83.18
2018-03-16T23:45:51.126Z,83.04
2018-03-16T23:48:18.531Z,82.85
2018-03-16T23:50:45.950Z,82.64
2018-03-16T23:53:13.353Z,82.70
2018-03-16T23:55:40.771Z,82.90
2018-03-16T23:58:08.183Z,83.00
